Time;durP1;ratioP1;P1;durP2;ratioP2;P2;SDS_P1;SDS_P2;PMS_P1;PMS_P2;Temp;Humidity;BMP_temperature;BMP_pressure;BME280_temperature;BME280_humidity;BME280_pressure;Samples;Min_cycle;Max_cycle;Signal;HPM_P1;HPM_P2
2023/01/11 00:02:01;;;;;;;3.93;2.53;;;;;;;;;;4899138;29;20319;-68
2023/01/11 00:04:29;;;;;;;4.77;2.03;;;;;;;;;;4883662;29;20040;-68
2023/01/11 00:06:56;;;;;;;5.50;3.23;;;;;;;;;;4883552;29;20052;-70
2023/01/11 00:09:22;;;;;;;6.20;2.90;;;;;;;;;;4897738;29;20670;-69
2023/01/11 00:11:48;;;;;;;4.90;2.33;;;;;;;;;;4898091;29;20276;-69
2023/01/11 00:14:14;;;;;;;3.67;2.33;;;;;;;;;;4898163;29;20862;-69
2023/01/11 00:16:40;;;;;;;4.37;2.60;;;;;;;;;;4898056;29;20355;-69
2023/01/11 00:19:06;;;;;;;5.03;2.53;;;;;;;;;;4882745;29;20032;-70
2023/01/11 00:21:32;;;;;;;2.43;2.13;;;;;;;;;;4898554;29;20039;-69
2023/01/11 00:23:57;;;;;;;6.40;2.63;;;;;;;;;;4883292;29;20047;-68
2023/01/11 00:26:23;;;;;;;6.83;2.70;;;;;;;;;;4883427;29;20067;-68
2023/01/11 00:28:49;;;;;;;2.37;2.17;;;;;;;;;;4883709;29;20056;-68
2023/01/11 00:31:15;;;;;;;4.47;2.50;;;;;;;;;;4914950;29;20032;-69
2023/01/11 00:33:42;;;;;;;13.27;2.40;;;;;;;;;;4914777;29;20133;-68
2023/01/11 00:36:08;;;;;;;5.10;2.23;;;;;;;;;;4883772;29;20272;-68
2023/01/11 00:39:08;;;;;;;3.90;2.00;;;;;;;;;;4899128;29;20300;-68
2023/01/11 00:49:41;;;;;;;3.67;2.67;;;;;;;;;;4898622;29;20403;-68
2023/01/11 00:52:08;;;;;;;5.33;2.33;;;;;;;;;;4898548;29;20375;-68
2023/01/11 00:54:34;;;;;;;6.77;3.63;;;;;;;;;;4883160;29;20288;-68
2023/01/11 00:57:00;;;;;;;3.07;2.33;;;;;;;;;;4898716;29;20347;-68
2023/01/11 00:59:25;;;;;;;4.50;2.53;;;;;;;;;;4883363;29;20376;-68
2023/01/11 01:01:51;;;;;;;4.33;2.87;;;;;;;;;;4883987;29;20134;-70
2023/01/11 01:04:17;;;;;;;3.70;2.47;;;;;;;;;;4886946;29;20066;-69
2023/01/11 01:06:43;;;;;;;2.83;2.07;;;;;;;;;;4886507;29;20048;-67
2023/01/11 01:09:08;;;;;;;3.60;2.30;;;;;;;;;;4886712;29;20288;-68
2023/01/11 01:11:34;;;;;;;3.33;2.53;;;;;;;;;;4886374;29;20040;-68
2023/01/11 01:16:46;;;;;;;2.57;2.23;;;;;;;;;;4901839;29;20453;-69
2023/01/11 01:19:12;;;;;;;3.83;2.67;;;;;;;;;;4901788;29;20275;-69
2023/01/11 01:21:37;;;;;;;5.73;2.17;;;;;;;;;;4887032;29;20283;-67
2023/01/11 01:24:03;;;;;;;5.00;2.63;;;;;;;;;;4887243;29;20043;-68
2023/01/11 01:26:30;;;;;;;4.83;2.53;;;;;;;;;;4917996;29;20052;-69
2023/01/11 01:28:56;;;;;;;3.97;2.40;;;;;;;;;;4885974;29;20355;-68
2023/01/11 01:31:22;;;;;;;5.87;3.07;;;;;;;;;;4917763;29;20053;-69
2023/01/11 01:33:48;;;;;;;4.40;3.07;;;;;;;;;;4886112;29;20899;-68
2023/01/11 01:36:14;;;;;;;2.83;2.13;;;;;;;;;;4901448;29;20040;-68
2023/01/11 01:38:40;;;;;;;5.47;2.93;;;;;;;;;;4886296;29;20280;-68
2023/01/11 01:41:06;;;;;;;4.93;2.70;;;;;;;;;;4920459;29;20039;-68
2023/01/11 01:44:02;;;;;;;2.70;2.23;;;;;;;;;;4936236;29;20039;-68
2023/01/11 01:46:29;;;;;;;4.67;2.60;;;;;;;;;;4871506;29;20311;-68
2023/01/11 01:49:00;;;;;;;4.23;2.50;;;;;;;;;;4936994;29;20314;-68
2023/01/11 01:51:31;;;;;;;3.53;2.50;;;;;;;;;;4920670;29;20288;-68
2023/01/11 01:54:00;;;;;;;3.80;2.47;;;;;;;;;;4904080;29;20638;-68
2023/01/11 01:56:30;;;;;;;5.83;3.27;;;;;;;;;;4904351;29;20868;-68
2023/01/11 01:58:59;;;;;;;3.57;2.17;;;;;;;;;;4920119;29;20284;-68
2023/01/11 02:04:13;;;;;;;3.27;2.40;;;;;;;;;;4919901;29;20276;-67
2023/01/11 02:06:39;;;;;;;5.00;2.53;;;;;;;;;;4903963;29;20299;-68
2023/01/11 02:09:10;;;;;;;4.83;2.40;;;;;;;;;;4904327;29;20279;-68
2023/01/11 02:11:42;;;;;;;4.63;2.87;;;;;;;;;;4904309;29;20286;-68
2023/01/11 02:14:11;;;;;;;5.00;2.83;;;;;;;;;;4904026;29;20283;-67
2023/01/11 02:16:37;;;;;;;2.70;2.10;;;;;;;;;;4919832;29;20291;-67
2023/01/11 02:19:07;;;;;;;4.90;3.17;;;;;;;;;;4904098;29;20293;-68
2023/01/11 02:21:35;;;;;;;3.50;2.33;;;;;;;;;;4920195;29;20898;-68
2023/01/11 02:24:20;;;;;;;5.93;2.53;;;;;;;;;;4903733;29;20362;-68
2023/01/11 02:26:59;;;;;;;9.30;3.23;;;;;;;;;;4903789;29;20109;-69
2023/01/11 02:29:31;;;;;;;3.37;2.43;;;;;;;;;;4935193;29;20742;-69
2023/01/11 02:32:13;;;;;;;4.20;2.80;;;;;;;;;;4917406;29;20275;-69
2023/01/11 02:34:43;;;;;;;4.40;2.70;;;;;;;;;;4901392;29;20429;-69
2023/01/11 02:37:27;;;;;;;5.03;2.72;;;;;;;;;;4917259;29;20335;-69
2023/01/11 02:40:06;;;;;;;6.37;3.10;;;;;;;;;;4917554;29;20568;-67
2023/01/11 02:45:57;;;;;;;6.07;3.17;;;;;;;;;;4917293;29;20295;-68
2023/01/11 02:48:29;;;;;;;3.87;2.77;;;;;;;;;;4894128;29;20290;-68
2023/01/11 02:50:59;;;;;;;5.03;2.87;;;;;;;;;;4919014;29;20284;-68
2023/01/11 02:53:31;;;;;;;2.58;2.15;;;;;;;;;;4903545;29;20339;-67
2023/01/11 02:55:58;;;;;;;3.67;2.77;;;;;;;;;;4919159;29;20056;-68
2023/01/11 02:58:27;;;;;;;5.73;2.90;;;;;;;;;;4919072;29;20416;-69
2023/01/11 03:00:54;;;;;;;6.87;3.47;;;;;;;;;;4903397;29;20808;-68
2023/01/11 03:03:23;;;;;;;5.53;2.70;;;;;;;;;;4903075;29;20288;-69
2023/01/11 03:05:57;;;;;;;7.23;2.77;;;;;;;;;;4918582;29;20268;-69
2023/01/11 03:08:43;;;;;;;6.00;3.00;;;;;;;;;;4902986;29;20301;-69
2023/01/11 03:12:50;;;;;;;10.93;3.53;;;;;;;;;;4903013;29;20292;-69
2023/01/11 03:14:27;;;;;;;8.13;3.03;;;;;;;;;;4918641;29;20303;-68
2023/01/11 03:16:53;;;;;;;6.63;3.40;;;;;;;;;;4931969;29;20267;-64
2023/01/11 03:19:24;;;;;;;6.50;2.63;;;;;;;;;;4902932;29;20287;-64
2023/01/11 03:22:04;;;;;;;2.73;2.17;;;;;;;;;;4902849;29;20490;-65
2023/01/11 03:24:40;;;;;;;4.50;2.42;;;;;;;;;;4902158;29;20295;-66
2023/01/11 03:27:09;;;;;;;4.00;3.03;;;;;;;;;;4918298;29;20056;-65
2023/01/11 03:29:38;;;;;;;5.83;2.57;;;;;;;;;;4918411;29;20736;-66
2023/01/11 03:32:04;;;;;;;4.50;2.93;;;;;;;;;;4918293;29;20287;-66
2023/01/11 03:34:30;;;;;;;3.53;2.30;;;;;;;;;;4918430;29;20291;-69
2023/01/11 03:36:58;;;;;;;4.80;2.50;;;;;;;;;;4918586;29;20627;-66
2023/01/11 03:39:31;;;;;;;9.90;3.47;;;;;;;;;;4902457;29;20470;-68
2023/01/11 03:41:58;;;;;;;8.30;3.37;;;;;;;;;;4902655;29;20286;-65
2023/01/11 03:44:26;;;;;;;3.93;2.53;;;;;;;;;;4905932;29;20275;-68
2023/01/11 03:47:04;;;;;;;5.07;2.70;;;;;;;;;;4902359;29;20314;-67
2023/01/11 03:49:32;;;;;;;6.90;2.80;;;;;;;;;;4902567;29;20678;-67
2023/01/11 03:51:59;;;;;;;3.83;2.70;;;;;;;;;;4918563;29;20283;-65
2023/01/11 03:54:25;;;;;;;5.57;3.70;;;;;;;;;;4917966;29;20667;-67
2023/01/11 03:56:55;;;;;;;7.07;3.23;;;;;;;;;;4902124;29;20302;-67
2023/01/11 03:59:20;;;;;;;4.43;2.67;;;;;;;;;;4902326;29;20321;-68
2023/01/11 04:01:46;;;;;;;8.87;3.70;;;;;;;;;;4902341;29;20440;-66
2023/01/11 04:04:12;;;;;;;6.67;3.30;;;;;;;;;;4917959;29;20367;-65
2023/01/11 04:06:38;;;;;;;7.03;3.63;;;;;;;;;;4901670;29;20047;-68
2023/01/11 04:09:05;;;;;;;8.03;2.90;;;;;;;;;;4902013;29;20032;-67
2023/01/11 04:11:30;;;;;;;2.70;2.27;;;;;;;;;;4934135;29;20358;-67
2023/01/11 04:13:58;;;;;;;3.80;2.57;;;;;;;;;;4902183;29;20279;-65
2023/01/11 04:16:26;;;;;;;3.77;2.50;;;;;;;;;;4921524;29;20047;-67
2023/01/11 04:18:52;;;;;;;6.27;2.60;;;;;;;;;;4898829;29;20290;-67
2023/01/11 04:21:17;;;;;;;5.80;2.70;;;;;;;;;;4900493;29;20058;-67
2023/01/11 04:23:43;;;;;;;5.17;2.93;;;;;;;;;;4916892;29;20501;-66
2023/01/11 04:26:08;;;;;;;3.37;2.77;;;;;;;;;;4900588;29;20135;-67
2023/01/11 04:28:34;;;;;;;12.50;2.67;;;;;;;;;;4901085;29;20056;-68
2023/01/11 04:30:59;;;;;;;5.13;2.40;;;;;;;;;;4901733;29;20126;-68
2023/01/11 04:33:25;;;;;;;4.53;3.17;;;;;;;;;;4902166;29;20063;-67
2023/01/11 04:35:51;;;;;;;5.43;2.53;;;;;;;;;;4902224;29;20533;-68
2023/01/11 04:38:17;;;;;;;5.93;2.40;;;;;;;;;;4905315;29;20039;-67
2023/01/11 04:40:45;;;;;;;4.83;2.67;;;;;;;;;;4921503;29;20036;-67
2023/01/11 04:43:11;;;;;;;7.50;3.10;;;;;;;;;;4905701;29;20691;-67
2023/01/11 04:45:37;;;;;;;4.77;2.80;;;;;;;;;;4890372;29;20304;-67
2023/01/11 04:48:04;;;;;;;7.77;3.10;;;;;;;;;;4905934;29;20439;-69
2023/01/11 04:50:30;;;;;;;3.40;2.73;;;;;;;;;;4905895;29;20330;-67
2023/01/11 04:52:58;;;;;;;4.47;2.73;;;;;;;;;;4905865;29;20031;-67
2023/01/11 04:55:24;;;;;;;6.27;3.57;;;;;;;;;;4905577;29;20295;-68
2023/01/11 04:57:50;;;;;;;4.40;2.93;;;;;;;;;;4905538;29;20367;-68
2023/01/11 05:00:15;;;;;;;4.90;2.77;;;;;;;;;;4905590;29;20383;-68
2023/01/11 05:02:41;;;;;;;4.10;2.70;;;;;;;;;;4905560;29;20067;-68
2023/01/11 05:05:07;;;;;;;3.07;2.50;;;;;;;;;;4905532;29;20039;-69
2023/01/11 05:07:36;;;;;;;4.70;2.77;;;;;;;;;;4921466;29;20059;-70
2023/01/11 05:10:04;;;;;;;6.00;3.70;;;;;;;;;;4905874;29;20386;-67
2023/01/11 05:12:30;;;;;;;3.07;2.47;;;;;;;;;;4905322;29;20769;-68
2023/01/11 05:14:56;;;;;;;4.97;2.80;;;;;;;;;;4905300;29;20351;-68
2023/01/11 05:17:21;;;;;;;4.23;3.07;;;;;;;;;;4905231;29;20063;-68
2023/01/11 05:19:47;;;;;;;4.23;2.40;;;;;;;;;;4905267;29;20094;-68
2023/01/11 05:22:12;;;;;;;5.97;2.97;;;;;;;;;;4905176;29;20378;-68
2023/01/11 05:24:38;;;;;;;4.37;2.83;;;;;;;;;;4905234;29;20505;-69
2023/01/11 05:27:04;;;;;;;4.43;2.70;;;;;;;;;;4920937;29;20466;-68
2023/01/11 05:29:30;;;;;;;6.47;3.33;;;;;;;;;;4920905;29;20496;-68
2023/01/11 05:31:56;;;;;;;14.07;3.43;;;;;;;;;;4904988;29;20287;-67
2023/01/11 05:34:21;;;;;;;4.43;3.00;;;;;;;;;;4920593;29;20068;-68
2023/01/11 05:36:47;;;;;;;6.30;2.93;;;;;;;;;;4904902;29;20081;-68
2023/01/11 05:39:13;;;;;;;4.73;2.53;;;;;;;;;;4904953;29;20039;-68
2023/01/11 05:41:39;;;;;;;3.43;2.60;;;;;;;;;;4904885;29;20427;-68
2023/01/11 05:46:49;;;;;;;3.97;3.07;;;;;;;;;;4920405;29;20110;-68
2023/01/11 05:49:14;;;;;;;6.30;2.67;;;;;;;;;;4904345;29;20287;-69
2023/01/11 05:51:41;;;;;;;7.60;2.73;;;;;;;;;;4904669;29;20584;-68
2023/01/11 05:54:09;;;;;;;3.60;2.50;;;;;;;;;;4904867;29;20146;-68
2023/01/11 05:56:35;;;;;;;6.33;3.00;;;;;;;;;;4905004;29;20295;-68
2023/01/11 05:59:02;;;;;;;4.13;2.70;;;;;;;;;;4904468;29;20279;-68
2023/01/11 06:01:28;;;;;;;6.90;3.47;;;;;;;;;;4904392;29;20055;-68
2023/01/11 06:03:53;;;;;;;3.90;2.60;;;;;;;;;;4904466;29;20300;-67
2023/01/11 06:06:19;;;;;;;5.47;2.70;;;;;;;;;;4904385;29;20050;-68
2023/01/11 06:08:45;;;;;;;4.97;2.60;;;;;;;;;;4904236;29;20040;-69
2023/01/11 06:11:11;;;;;;;7.30;2.40;;;;;;;;;;4904348;29;20031;-68
2023/01/11 06:13:36;;;;;;;4.83;2.90;;;;;;;;;;4904433;29;20151;-68
2023/01/11 06:16:10;;;;;;;2.90;2.50;;;;;;;;;;4904319;29;20482;-68
2023/01/11 06:18:37;;;;;;;4.03;2.27;;;;;;;;;;4904453;29;20094;-69
2023/01/11 06:21:03;;;;;;;6.73;3.40;;;;;;;;;;4935742;29;20271;-68
2023/01/11 06:23:30;;;;;;;9.80;4.10;;;;;;;;;;4904091;29;20651;-68
2023/01/11 06:25:56;;;;;;;7.40;3.57;;;;;;;;;;4919537;29;20279;-68
2023/01/11 06:28:21;;;;;;;7.53;3.43;;;;;;;;;;4903824;29;20386;-68
2023/01/11 06:30:54;;;;;;;4.57;2.80;;;;;;;;;;4903956;29;20370;-68
2023/01/11 06:33:20;;;;;;;7.90;2.73;;;;;;;;;;4919818;29;20032;-68
2023/01/11 06:35:46;;;;;;;3.20;2.57;;;;;;;;;;4936177;29;20295;-68
2023/01/11 06:38:12;;;;;;;10.03;3.03;;;;;;;;;;4903706;29;20268;-68
2023/01/11 06:40:39;;;;;;;4.87;3.03;;;;;;;;;;4904097;29;20040;-68
2023/01/11 06:43:05;;;;;;;6.03;2.70;;;;;;;;;;4919740;29;20287;-68
2023/01/11 06:45:31;;;;;;;5.97;2.70;;;;;;;;;;4919263;29;20279;-68
2023/01/11 06:47:57;;;;;;;7.80;3.87;;;;;;;;;;4903808;29;20330;-68
2023/01/11 06:50:23;;;;;;;7.50;4.30;;;;;;;;;;4935070;29;20059;-68
2023/01/11 06:52:59;;;;;;;3.97;2.83;;;;;;;;;;4919143;29;20749;-67
2023/01/11 06:55:25;;;;;;;5.77;3.40;;;;;;;;;;4935844;29;20271;-68
2023/01/11 06:57:51;;;;;;;6.40;3.40;;;;;;;;;;4935161;29;20283;-68
2023/01/11 07:00:17;;;;;;;10.10;3.30;;;;;;;;;;4918376;29;20438;-67
2023/01/11 07:02:45;;;;;;;7.93;3.60;;;;;;;;;;4919556;29;20056;-68
2023/01/11 07:05:11;;;;;;;6.73;3.50;;;;;;;;;;4919310;29;20757;-68
2023/01/11 07:07:37;;;;;;;6.53;2.77;;;;;;;;;;4903530;29;20309;-68
2023/01/11 07:10:06;;;;;;;8.67;3.87;;;;;;;;;;4903341;29;20050;-68
2023/01/11 07:12:32;;;;;;;8.77;3.23;;;;;;;;;;4919042;29;20299;-68
2023/01/11 07:14:58;;;;;;;4.90;2.80;;;;;;;;;;4903113;29;20318;-69
2023/01/11 07:17:23;;;;;;;12.67;4.13;;;;;;;;;;4903040;29;20459;-68
2023/01/11 07:19:49;;;;;;;7.70;3.83;;;;;;;;;;4903055;29;20050;-69
2023/01/11 07:22:15;;;;;;;5.77;2.93;;;;;;;;;;4903014;29;20091;-68
2023/01/11 07:24:40;;;;;;;10.57;4.07;;;;;;;;;;4918966;29;20046;-68
2023/01/11 07:27:06;;;;;;;8.03;3.73;;;;;;;;;;4902652;29;20060;-68
2023/01/11 07:29:31;;;;;;;10.50;3.80;;;;;;;;;;4902968;29;20040;-69
2023/01/11 07:31:57;;;;;;;10.67;4.27;;;;;;;;;;4902914;29;20035;-68
2023/01/11 07:34:23;;;;;;;6.00;3.77;;;;;;;;;;4902918;29;20036;-68
2023/01/11 07:36:49;;;;;;;6.77;2.97;;;;;;;;;;4918630;29;20489;-68
2023/01/11 07:39:14;;;;;;;5.63;3.17;;;;;;;;;;4903000;29;20122;-68
2023/01/11 07:44:24;;;;;;;5.33;2.43;;;;;;;;;;4918515;29;20076;-68
2023/01/11 07:46:50;;;;;;;9.33;2.77;;;;;;;;;;4902825;29;20300;-68
2023/01/11 07:49:15;;;;;;;6.17;2.77;;;;;;;;;;4918305;29;20035;-68
2023/01/11 07:51:41;;;;;;;3.80;2.23;;;;;;;;;;4902903;29;20059;-68
2023/01/11 07:54:06;;;;;;;3.33;2.40;;;;;;;;;;4934217;29;20047;-68
2023/01/11 07:56:32;;;;;;;4.60;2.90;;;;;;;;;;4902593;29;20039;-68
2023/01/11 07:58:58;;;;;;;3.70;2.47;;;;;;;;;;4918235;29;20474;-68
2023/01/11 08:01:24;;;;;;;3.07;2.37;;;;;;;;;;4902593;29;20541;-67
2023/01/11 08:03:50;;;;;;;5.63;3.33;;;;;;;;;;4902521;29;20501;-68
2023/01/11 08:06:16;;;;;;;5.93;2.67;;;;;;;;;;4934096;29;20074;-68
2023/01/11 08:08:42;;;;;;;4.37;2.50;;;;;;;;;;4902499;29;20035;-68
2023/01/11 08:16:36;;;;;;;4.00;2.27;;;;;;;;;;4922017;29;20279;-68
2023/01/11 08:19:01;;;;;;;7.27;2.20;;;;;;;;;;4906462;29;20446;-68
2023/01/11 08:21:27;;;;;;;4.93;2.20;;;;;;;;;;4906365;29;20526;-68
2023/01/11 08:23:55;;;;;;;3.37;2.30;;;;;;;;;;4921817;29;20040;-68
2023/01/11 08:26:24;;;;;;;3.70;2.20;;;;;;;;;;4906195;29;20035;-68
2023/01/11 08:28:50;;;;;;;3.83;2.00;;;;;;;;;;4937704;29;20299;-68
2023/01/11 08:31:16;;;;;;;2.73;2.10;;;;;;;;;;4906112;29;20638;-68
2023/01/11 08:33:42;;;;;;;5.20;2.37;;;;;;;;;;4922111;29;20139;-67
2023/01/11 08:36:08;;;;;;;4.13;3.00;;;;;;;;;;4906164;29;20386;-67
2023/01/11 08:38:34;;;;;;;4.47;2.43;;;;;;;;;;4906012;29;20107;-68
2023/01/11 08:41:00;;;;;;;4.97;2.50;;;;;;;;;;4905854;29;20615;-67
2023/01/11 08:43:25;;;;;;;10.33;2.30;;;;;;;;;;4905902;29;20375;-67
2023/01/11 08:45:51;;;;;;;4.67;2.37;;;;;;;;;;4905913;29;20035;-69
2023/01/11 08:48:16;;;;;;;2.97;2.03;;;;;;;;;;4906048;29;20051;-68
2023/01/11 08:50:43;;;;;;;5.77;2.80;;;;;;;;;;4905766;29;20039;-69
2023/01/11 08:53:09;;;;;;;7.27;2.37;;;;;;;;;;4905802;29;20035;-68
2023/01/11 08:55:35;;;;;;;3.93;2.50;;;;;;;;;;4905776;29;20338;-67
2023/01/11 08:58:01;;;;;;;2.83;2.30;;;;;;;;;;4905686;29;20287;-67
2023/01/11 09:00:29;;;;;;;2.50;2.00;;;;;;;;;;4905810;29;20488;-68
2023/01/11 09:02:54;;;;;;;2.97;2.03;;;;;;;;;;4905483;29;20283;-67
2023/01/11 09:05:21;;;;;;;2.50;2.07;;;;;;;;;;4905857;29;20071;-67
2023/01/11 09:07:49;;;;;;;5.47;2.10;;;;;;;;;;4906224;29;20058;-68
2023/01/11 09:10:15;;;;;;;4.03;2.47;;;;;;;;;;4921348;29;20279;-68
2023/01/11 09:12:41;;;;;;;4.23;2.67;;;;;;;;;;4905422;29;20052;-68
2023/01/11 09:15:10;;;;;;;3.03;1.87;;;;;;;;;;4921480;29;20098;-67
2023/01/11 09:17:35;;;;;;;3.67;2.30;;;;;;;;;;4905294;29;20287;-67
2023/01/11 09:20:04;;;;;;;2.93;2.10;;;;;;;;;;4921229;29;20493;-68
2023/01/11 09:22:32;;;;;;;5.40;2.60;;;;;;;;;;4904279;29;20283;-67
2023/01/11 09:25:01;;;;;;;10.73;2.72;;;;;;;;;;4921458;29;20043;-67
2023/01/11 09:27:29;;;;;;;3.20;2.10;;;;;;;;;;4889952;29;20068;-67
2023/01/11 09:29:55;;;;;;;4.40;2.63;;;;;;;;;;4937110;29;20291;-68
2023/01/11 09:32:21;;;;;;;7.10;2.60;;;;;;;;;;4904757;29;20282;-68
2023/01/11 09:34:56;;;;;;;3.10;2.47;;;;;;;;;;4936710;29;20430;-70
2023/01/11 09:37:24;;;;;;;5.43;2.90;;;;;;;;;;4905026;29;20404;-68
2023/01/11 09:39:51;;;;;;;3.83;2.03;;;;;;;;;;4936552;29;20298;-67
2023/01/11 09:42:30;;;;;;;2.58;1.98;;;;;;;;;;4905535;29;20074;-68
2023/01/11 09:45:14;;;;;;;4.20;2.57;;;;;;;;;;4904934;29;20134;-68
2023/01/11 09:48:29;;;;;;;6.57;2.20;;;;;;;;;;4912411;29;20841;-67
2023/01/11 09:50:55;;;;;;;;;;;;;;;;;;4895930;29;20276;-68
2023/01/11 09:53:31;;;;;;;2.30;2.07;;;;;;;;;;4920645;29;19921;-67
2023/01/11 09:56:00;;;;;;;2.03;1.87;;;;;;;;;;4937032;29;20049;-68
2023/01/11 09:58:31;;;;;;;3.90;2.40;;;;;;;;;;4920571;29;20330;-69
2023/01/11 10:01:15;;;;;;;5.10;2.50;;;;;;;;;;4904671;29;20095;-67
2023/01/11 10:04:10;;;;;;;7.13;2.73;;;;;;;;;;4935880;29;20358;-68
2023/01/11 10:06:57;;;;;;;7.23;2.43;;;;;;;;;;4904464;29;20039;-68
2023/01/11 10:09:29;;;;;;;4.73;2.67;;;;;;;;;;4904527;29;20295;-68
2023/01/11 10:12:04;;;;;;;3.97;2.37;;;;;;;;;;4904411;29;20323;-69
2023/01/11 10:14:48;;;;;;;5.83;3.20;;;;;;;;;;4904300;29;20506;-68
2023/01/11 10:17:20;;;;;;;5.30;2.80;;;;;;;;;;4920028;29;20036;-68
2023/01/11 10:19:48;;;;;;;7.00;2.83;;;;;;;;;;4904319;29;20039;-67
2023/01/11 10:22:38;;;;;;;6.93;2.47;;;;;;;;;;4904910;29;20290;-67
2023/01/11 10:25:24;;;;;;;6.00;3.37;;;;;;;;;;4920643;29;20284;-67
2023/01/11 10:27:59;;;;;;;6.63;2.57;;;;;;;;;;4937337;29;20111;-67
2023/01/11 10:30:36;;;;;;;3.60;2.50;;;;;;;;;;4921097;29;20286;-67
2023/01/11 10:36:29;;;;;;;2.90;2.27;;;;;;;;;;4932292;29;20111;-67
2023/01/11 10:39:26;;;;;;;3.47;2.30;;;;;;;;;;4935517;29;20083;-67
2023/01/11 10:42:16;;;;;;;7.77;2.40;;;;;;;;;;4920085;29;20055;-67
2023/01/11 10:44:46;;;;;;;;;;;;;;;;;;4936928;29;20063;-68
2023/01/11 10:47:18;;;;;;;3.30;2.20;;;;;;;;;;4919535;29;20028;-69
2023/01/11 10:49:50;;;;;;;3.90;2.47;;;;;;;;;;4903758;29;20670;-68
2023/01/11 10:52:43;;;;;;;3.53;2.83;;;;;;;;;;4903809;29;20780;-67
2023/01/11 10:55:11;;;;;;;7.97;2.20;;;;;;;;;;4911693;29;20276;-67
2023/01/11 10:57:46;;;;;;;4.63;2.93;;;;;;;;;;4919287;29;20678;-67
2023/01/11 11:00:30;;;;;;;5.93;2.80;;;;;;;;;;4889439;29;20287;-68
2023/01/11 11:02:58;;;;;;;4.83;3.10;;;;;;;;;;4903051;29;20055;-67
2023/01/11 11:05:31;;;;;;;6.53;2.93;;;;;;;;;;4918704;29;20286;-67
2023/01/11 11:08:06;;;;;;;3.20;2.40;;;;;;;;;;4934156;29;20299;-67
2023/01/11 11:10:36;;;;;;;2.83;1.83;;;;;;;;;;4902704;29;20335;-67
2023/01/11 11:13:34;;;;;;;5.57;3.07;;;;;;;;;;4934408;29;20337;-68
2023/01/11 11:16:09;;;;;;;9.27;3.30;;;;;;;;;;4934204;29;20382;-68
2023/01/11 11:18:35;;;;;;;4.77;2.30;;;;;;;;;;4902460;29;20091;-67
2023/01/11 11:21:05;;;;;;;7.70;2.63;;;;;;;;;;4918643;29;20275;-67
2023/01/11 11:23:31;;;;;;;4.33;2.50;;;;;;;;;;4902761;29;20040;-67
2023/01/11 11:26:02;;;;;;;7.37;3.03;;;;;;;;;;4935218;29;20271;-66
2023/01/11 11:28:30;;;;;;;5.15;3.05;;;;;;;;;;4934067;29;20138;-67
2023/01/11 11:31:02;;;;;;;4.50;2.75;;;;;;;;;;4903919;29;20035;-68
2023/01/11 11:33:37;;;;;;;4.50;2.63;;;;;;;;;;4887123;29;20478;-68
2023/01/11 11:36:04;;;;;;;5.37;2.43;;;;;;;;;;4887394;29;20793;-66
2023/01/11 11:38:32;;;;;;;2.80;2.27;;;;;;;;;;4918411;29;20610;-65
2023/01/11 11:41:17;;;;;;;5.77;3.03;;;;;;;;;;4918636;29;20036;-72
2023/01/11 11:43:44;;;;;;;2.17;1.97;;;;;;;;;;4902911;29;20063;-72
2023/01/11 11:46:28;;;;;;;4.40;2.70;;;;;;;;;;4918013;29;20398;-72
2023/01/11 11:49:23;;;;;;;4.57;2.60;;;;;;;;;;4918792;29;20131;-70
2023/01/11 11:51:49;;;;;;;4.50;2.67;;;;;;;;;;4900437;29;20051;-70
2023/01/11 11:54:26;;;;;;;4.03;2.50;;;;;;;;;;4903262;29;20401;-71
2023/01/11 11:56:54;;;;;;;3.90;2.23;;;;;;;;;;4934212;29;20027;-72
2023/01/11 11:59:22;;;;;;;6.87;2.93;;;;;;;;;;4903060;29;20043;-71
2023/01/11 12:01:54;;;;;;;3.43;2.33;;;;;;;;;;4933815;29;20310;-71
2023/01/11 12:04:28;;;;;;;3.87;2.37;;;;;;;;;;4902569;29;20318;-71
2023/01/11 12:07:03;;;;;;;3.37;2.33;;;;;;;;;;4902540;29;20043;-70
2023/01/11 12:09:31;;;;;;;4.53;2.30;;;;;;;;;;4902726;29;20098;-73
2023/01/11 12:12:04;;;;;;;4.97;2.42;;;;;;;;;;4902523;29;20382;-74
2023/01/11 12:14:31;;;;;;;5.82;2.47;;;;;;;;;;4917190;29;20462;-72
2023/01/11 12:17:14;;;;;;;3.67;2.40;;;;;;;;;;4900840;29;20490;-73
2023/01/11 12:19:47;;;;;;;3.27;2.23;;;;;;;;;;4914748;29;20039;-75
2023/01/11 12:22:28;;;;;;;3.07;2.10;;;;;;;;;;4915034;29;20043;-74
2023/01/11 12:25:31;;;;;;;5.43;2.70;;;;;;;;;;4931522;29;20043;-77
2023/01/11 12:27:59;;;;;;;4.63;2.40;;;;;;;;;;4879827;29;20154;-73
2023/01/11 12:30:40;;;;;;;3.17;2.10;;;;;;;;;;4899080;29;20127;-74
2023/01/11 12:33:25;;;;;;;3.50;2.30;;;;;;;;;;4899435;29;20107;-74
2023/01/11 12:35:54;;;;;;;3.23;2.20;;;;;;;;;;4883830;29;20047;-73
2023/01/11 12:38:39;;;;;;;5.67;2.27;;;;;;;;;;4883920;29;20044;-74
2023/01/11 12:41:05;;;;;;;6.27;2.30;;;;;;;;;;4883711;29;20130;-77
2023/01/11 12:43:43;;;;;;;3.70;2.13;;;;;;;;;;4884018;29;20040;-74
2023/01/11 12:46:15;;;;;;;6.47;2.73;;;;;;;;;;4883735;29;20047;-73
2023/01/11 12:48:41;;;;;;;4.17;2.20;;;;;;;;;;4883711;29;20066;-72
2023/01/11 12:51:16;;;;;;;3.77;2.30;;;;;;;;;;4883901;29;20471;-73
2023/01/11 12:53:45;;;;;;;3.70;2.30;;;;;;;;;;4883451;29;20522;-72
2023/01/11 12:56:51;;;;;;;;;;;;;;;;;;;;;
2023/01/11 12:59:21;;;;;;;3.27;2.00;;;;;;;;;;4917020;29;20064;-70
2023/01/11 13:02:22;;;;;;;2.43;2.07;;;;;;;;;;4886996;29;20450;-73
2023/01/11 13:04:48;;;;;;;3.73;2.27;;;;;;;;;;4885880;29;20550;-76
2023/01/11 13:07:42;;;;;;;6.13;2.10;;;;;;;;;;4898740;29;20155;-76
2023/01/11 13:10:11;;;;;;;7.43;2.40;;;;;;;;;;4914463;29;20036;-74
2023/01/11 13:12:41;;;;;;;2.90;1.93;;;;;;;;;;4937315;29;20043;-74
2023/01/11 13:15:10;;;;;;;5.83;2.23;;;;;;;;;;4906172;29;20078;-77
2023/01/11 13:17:43;;;;;;;3.20;1.93;;;;;;;;;;4906232;29;20089;-72
2023/01/11 13:20:14;;;;;;;3.00;2.17;;;;;;;;;;4906610;29;20298;-72
2023/01/11 13:22:42;;;;;;;3.63;2.30;;;;;;;;;;4905452;29;20036;-70
2023/01/11 13:25:17;;;;;;;2.43;1.83;;;;;;;;;;4906151;29;20032;-73
2023/01/11 13:27:48;;;;;;;2.47;2.27;;;;;;;;;;4905377;29;20090;-73
2023/01/11 13:30:16;;;;;;;3.00;2.07;;;;;;;;;;4920917;29;20070;-73
2023/01/11 13:32:51;;;;;;;4.90;2.38;;;;;;;;;;4905564;29;20725;-73
2023/01/11 13:35:38;;;;;;;4.47;2.67;;;;;;;;;;4905440;29;20094;-73
2023/01/11 13:38:32;;;;;;;3.57;2.20;;;;;;;;;;4907459;29;20134;-72
2023/01/11 13:41:08;;;;;;;3.27;2.03;;;;;;;;;;4905289;29;20061;-73
2023/01/11 13:43:52;;;;;;;3.17;2.27;;;;;;;;;;4905129;29;20134;-73
2023/01/11 13:46:23;;;;;;;1.90;1.40;;;;;;;;;;4904850;29;20064;-73
2023/01/11 13:48:54;;;;;;;3.80;2.13;;;;;;;;;;4904740;29;20039;-72
2023/01/11 13:51:28;;;;;;;3.90;2.08;;;;;;;;;;4920447;29;20039;-72
2023/01/11 13:54:15;;;;;;;2.87;1.67;;;;;;;;;;4906038;29;20039;-76
2023/01/11 13:56:42;;;;;;;6.70;3.17;;;;;;;;;;4904548;29;20126;-72
2023/01/11 13:59:36;;;;;;;3.20;2.10;;;;;;;;;;4922561;29;20098;-72
2023/01/11 14:02:20;;;;;;;7.40;2.27;;;;;;;;;;4905558;29;20043;-74
2023/01/11 14:04:49;;;;;;;5.27;2.10;;;;;;;;;;4905213;29;20043;-72
2023/01/11 14:07:47;;;;;;;3.50;2.50;;;;;;;;;;4904883;29;20058;-72
2023/01/11 14:10:13;;;;;;;3.07;2.10;;;;;;;;;;4908883;29;20194;-73
2023/01/11 14:12:51;;;;;;;5.77;2.40;;;;;;;;;;4904420;29;20047;-73
2023/01/11 14:15:21;;;;;;;4.70;2.40;;;;;;;;;;4904330;29;20054;-74
2023/01/11 14:18:10;;;;;;;3.13;1.63;;;;;;;;;;4905492;29;20046;-71
2023/01/11 14:20:42;;;;;;;2.45;1.90;;;;;;;;;;4903778;29;20043;-72
2023/01/11 14:23:18;;;;;;;2.07;1.87;;;;;;;;;;4919555;29;20046;-73
2023/01/11 14:25:55;;;;;;;2.40;2.10;;;;;;;;;;4919317;29;20046;-72
2023/01/11 14:28:42;;;;;;;4.93;2.17;;;;;;;;;;4919197;29;20066;-73
2023/01/11 14:31:08;;;;;;;3.37;1.70;;;;;;;;;;4919618;29;20800;-71
2023/01/11 14:34:03;;;;;;;2.60;1.70;;;;;;;;;;4904856;29;20072;-73
2023/01/11 14:36:40;;;;;;;3.90;2.00;;;;;;;;;;4888792;29;20081;-73
2023/01/11 14:39:13;;;;;;;4.33;2.03;;;;;;;;;;4934982;29;20466;-72
2023/01/11 14:41:59;;;;;;;3.10;2.17;;;;;;;;;;4903760;29;20040;-73
2023/01/11 14:44:39;;;;;;;3.47;2.17;;;;;;;;;;4919492;29;20126;-73
2023/01/11 14:47:20;;;;;;;2.67;2.00;;;;;;;;;;4918909;29;20122;-72
2023/01/11 14:50:03;;;;;;;3.60;2.47;;;;;;;;;;4903488;29;20106;-71
2023/01/11 14:52:48;;;;;;;;;;;;;;;;;;;;;
2023/01/11 14:55:27;;;;;;;3.53;1.70;;;;;;;;;;4934808;29;20042;-70
2023/01/11 14:58:13;;;;;;;3.97;2.47;;;;;;;;;;4903338;29;20043;-70
2023/01/11 15:00:42;;;;;;;3.57;1.97;;;;;;;;;;4903120;29;20031;-71
2023/01/11 15:03:10;;;;;;;6.87;1.87;;;;;;;;;;4919345;29;20761;-72
2023/01/11 15:05:45;;;;;;;4.83;2.37;;;;;;;;;;4919340;29;20280;-72
2023/01/11 15:08:13;;;;;;;2.73;1.93;;;;;;;;;;4903750;29;20055;-70
2023/01/11 15:10:45;;;;;;;3.50;2.13;;;;;;;;;;4918912;29;20478;-70
2023/01/11 15:13:19;;;;;;;4.00;2.60;;;;;;;;;;4914795;29;20040;-71
2023/01/11 15:18:30;;;;;;;3.17;2.00;;;;;;;;;;4918689;29;20280;-70
2023/01/11 15:20:57;;;;;;;4.40;2.47;;;;;;;;;;4901394;29;20275;-72
2023/01/11 15:23:23;;;;;;;2.63;1.70;;;;;;;;;;4934495;29;20050;-70
2023/01/11 15:25:58;;;;;;;3.57;2.20;;;;;;;;;;4918703;29;20039;-70
2023/01/11 15:28:30;;;;;;;4.70;2.17;;;;;;;;;;4887636;29;20307;-72
2023/01/11 15:30:57;;;;;;;2.80;2.03;;;;;;;;;;4902069;29;20290;-70
2023/01/11 15:33:24;;;;;;;3.00;2.13;;;;;;;;;;4902867;29;20330;-71
2023/01/11 15:35:56;;;;;;;6.50;2.53;;;;;;;;;;4902796;29;20366;-70
2023/01/11 15:38:35;;;;;;;2.70;2.03;;;;;;;;;;4903068;29;20396;-70
2023/01/11 15:44:26;;;;;;;3.47;1.87;;;;;;;;;;4906810;29;20075;-70
2023/01/11 15:47:00;;;;;;;2.47;1.80;;;;;;;;;;4910655;29;20930;-73